Nambouwalu, Fiji
Current Conditions -  °F | °C
As of 4:00 AM on Monday 24 Nov 2014 (Local Time) from NFNA Reporting Station
Scattered Clouds Scattered Clouds  
Wind Chill: 24°   Ceiling: Unl
Heat Index: 24°   Visibility: 25mi
Dew Point: 20°   Wind: 5mph
Humidity: 78%   Direction: 150°SSE
Pressure: 29.85"   Gusts: NA
Location:  16.99°S, 178.69°E
Report Text: NFNA 231600Z 15004KT 40KM SCT022 24/20 Q1011 RMK RR NIL
Loading
Personal Weather Stations






























Interactive Weather Map New forecast layout! Learn more

10-Day Weather Forecast

Advertisements
Track Severe Weather on mobile